sensor_id;sensor_type;location;lat;lon;timestamp;pressure;altitude;pressure_sealevel;temperature;humidity
48424;BME280;34232;42.502;26.014;2022-12-18T00:00:05;100703.59;;;12.31;95.27
48424;BME280;34232;42.502;26.014;2022-12-18T00:02:31;100715.56;;;12.35;93.62
48424;BME280;34232;42.502;26.014;2022-12-18T00:04:59;100717.00;;;12.39;93.26
48424;BME280;34232;42.502;26.014;2022-12-18T00:07:24;100719.88;;;12.47;92.37
48424;BME280;34232;42.502;26.014;2022-12-18T00:09:50;100725.25;;;12.57;90.70
48424;BME280;34232;42.502;26.014;2022-12-18T00:12:15;100718.97;;;12.69;90.04
48424;BME280;34232;42.502;26.014;2022-12-18T00:14:41;100723.16;;;12.83;89.92
48424;BME280;34232;42.502;26.014;2022-12-18T00:17:08;100720.75;;;12.91;89.15
48424;BME280;34232;42.502;26.014;2022-12-18T00:19:36;100732.50;;;12.98;88.79
48424;BME280;34232;42.502;26.014;2022-12-18T00:22:02;100732.47;;;13.09;87.27
48424;BME280;34232;42.502;26.014;2022-12-18T00:24:27;100738.94;;;13.16;87.65
48424;BME280;34232;42.502;26.014;2022-12-18T00:26:53;100733.41;;;13.19;87.31
48424;BME280;34232;42.502;26.014;2022-12-18T00:29:18;100738.44;;;13.22;87.68
48424;BME280;34232;42.502;26.014;2022-12-18T00:31:44;100732.69;;;13.17;86.69
48424;BME280;34232;42.502;26.014;2022-12-18T00:34:11;100759.59;;;13.22;85.59
48424;BME280;34232;42.502;26.014;2022-12-18T00:36:39;100757.53;;;13.26;85.94
48424;BME280;34232;42.502;26.014;2022-12-18T00:39:05;100769.16;;;13.35;86.58
48424;BME280;34232;42.502;26.014;2022-12-18T00:41:31;100778.06;;;13.34;87.08
48424;BME280;34232;42.502;26.014;2022-12-18T00:44:16;100778.81;;;13.24;85.84
48424;BME280;34232;42.502;26.014;2022-12-18T00:46:43;100784.59;;;13.18;85.31
48424;BME280;34232;42.502;26.014;2022-12-18T00:49:09;100779.56;;;13.15;85.48
48424;BME280;34232;42.502;26.014;2022-12-18T00:51:35;100805.50;;;13.21;85.38
48424;BME280;34232;42.502;26.014;2022-12-18T00:54:00;100806.69;;;13.28;85.17
48424;BME280;34232;42.502;26.014;2022-12-18T00:56:26;100795.84;;;13.31;84.24
48424;BME280;34232;42.502;26.014;2022-12-18T00:58:51;100798.72;;;13.40;85.35
48424;BME280;34232;42.502;26.014;2022-12-18T01:01:17;100804.00;;;13.40;85.65
48424;BME280;34232;42.502;26.014;2022-12-18T01:03:42;100798.72;;;13.40;85.82
48424;BME280;34232;42.502;26.014;2022-12-18T01:06:11;100785.38;;;13.41;86.37
48424;BME280;34232;42.502;26.014;2022-12-18T01:08:38;100789.81;;;13.41;85.27
48424;BME280;34232;42.502;26.014;2022-12-18T01:11:08;100790.97;;;13.48;84.62
48424;BME280;34232;42.502;26.014;2022-12-18T01:13:34;100789.69;;;13.42;83.94
48424;BME280;34232;42.502;26.014;2022-12-18T01:15:59;100805.19;;;13.47;83.48
48424;BME280;34232;42.502;26.014;2022-12-18T01:18:25;100802.41;;;13.48;82.95
48424;BME280;34232;42.502;26.014;2022-12-18T01:20:51;100792.94;;;13.35;82.26
48424;BME280;34232;42.502;26.014;2022-12-18T01:23:17;100795.72;;;13.33;82.14
48424;BME280;34232;42.502;26.014;2022-12-18T01:25:42;100773.88;;;13.31;82.00
48424;BME280;34232;42.502;26.014;2022-12-18T01:28:07;100766.56;;;13.23;82.74
48424;BME280;34232;42.502;26.014;2022-12-18T01:30:33;100754.78;;;13.16;82.17
48424;BME280;34232;42.502;26.014;2022-12-18T01:32:58;100763.91;;;13.23;82.28
48424;BME280;34232;42.502;26.014;2022-12-18T01:35:24;100780.50;;;13.25;81.63
48424;BME280;34232;42.502;26.014;2022-12-18T01:37:54;100785.41;;;13.30;82.23
48424;BME280;34232;42.502;26.014;2022-12-18T01:40:19;100780.69;;;13.34;82.49
48424;BME280;34232;42.502;26.014;2022-12-18T01:42:51;100775.22;;;13.25;84.11
48424;BME280;34232;42.502;26.014;2022-12-18T01:47:57;100793.06;;;13.33;83.89
48424;BME280;34232;42.502;26.014;2022-12-18T01:50:29;100781.09;;;13.29;84.36
48424;BME280;34232;42.502;26.014;2022-12-18T01:53:00;100775.47;;;13.22;85.25
48424;BME280;34232;42.502;26.014;2022-12-18T01:55:35;100780.88;;;13.10;86.09
48424;BME280;34232;42.502;26.014;2022-12-18T01:58:02;100775.84;;;13.07;86.25
48424;BME280;34232;42.502;26.014;2022-12-18T02:00:34;100780.75;;;13.00;86.85
48424;BME280;34232;42.502;26.014;2022-12-18T02:03:00;100781.16;;;12.95;86.79
48424;BME280;34232;42.502;26.014;2022-12-18T02:10:57;100771.34;;;12.75;87.98
48424;BME280;34232;42.502;26.014;2022-12-18T02:13:52;100774.84;;;12.53;88.13
48424;BME280;34232;42.502;26.014;2022-12-18T02:18:56;100769.81;;;12.39;89.27
48424;BME280;34232;42.502;26.014;2022-12-18T02:24:28;100775.81;;;12.30;89.92
48424;BME280;34232;42.502;26.014;2022-12-18T02:27:02;100778.91;;;12.35;89.52
48424;BME280;34232;42.502;26.014;2022-12-18T02:29:51;100787.34;;;12.40;88.57
48424;BME280;34232;42.502;26.014;2022-12-18T02:32:30;100785.03;;;12.36;87.37
48424;BME280;34232;42.502;26.014;2022-12-18T02:34:59;100778.91;;;12.35;87.16
48424;BME280;34232;42.502;26.014;2022-12-18T02:37:27;100775.31;;;12.36;87.04
48424;BME280;34232;42.502;26.014;2022-12-18T02:39:55;100775.31;;;12.36;87.11
48424;BME280;34232;42.502;26.014;2022-12-18T02:42:22;100778.06;;;12.35;87.31
48424;BME280;34232;42.502;26.014;2022-12-18T02:44:50;100780.59;;;12.36;87.34
48424;BME280;34232;42.502;26.014;2022-12-18T02:47:21;100780.59;;;12.36;87.46
48424;BME280;34232;42.502;26.014;2022-12-18T03:00:39;100807.50;;;12.41;85.98
48424;BME280;34232;42.502;26.014;2022-12-18T03:03:07;100810.50;;;12.37;85.57
48424;BME280;34232;42.502;26.014;2022-12-18T03:05:45;100807.63;;;12.29;85.89
48424;BME280;34232;42.502;26.014;2022-12-18T03:08:19;100801.00;;;12.23;86.13
48424;BME280;34232;42.502;26.014;2022-12-18T03:11:04;100811.31;;;12.26;85.29
48424;BME280;34232;42.502;26.014;2022-12-18T03:13:54;100809.66;;;12.25;86.13
48424;BME280;34232;42.502;26.014;2022-12-18T03:16:27;100816.84;;;12.23;85.91
48424;BME280;34232;42.502;26.014;2022-12-18T03:19:10;100820.31;;;12.12;85.41
48424;BME280;34232;42.502;26.014;2022-12-18T03:21:43;100825.72;;;12.22;84.98
48424;BME280;34232;42.502;26.014;2022-12-18T03:24:11;100817.69;;;12.23;84.85
48424;BME280;34232;42.502;26.014;2022-12-18T03:26:37;100821.66;;;12.29;85.16
48424;BME280;34232;42.502;26.014;2022-12-18T03:29:12;100811.78;;;12.20;86.05
48424;BME280;34232;42.502;26.014;2022-12-18T03:31:40;100833.06;;;12.30;85.23
48424;BME280;34232;42.502;26.014;2022-12-18T03:34:19;100834.50;;;12.34;84.31
48424;BME280;34232;42.502;26.014;2022-12-18T03:36:45;100838.09;;;12.33;84.26
48424;BME280;34232;42.502;26.014;2022-12-18T03:39:10;100843.38;;;12.33;84.80
48424;BME280;34232;42.502;26.014;2022-12-18T03:44:40;100855.97;;;12.29;84.92
48424;BME280;34232;42.502;26.014;2022-12-18T03:52:38;100872.25;;;12.12;83.96
48424;BME280;34232;42.502;26.014;2022-12-18T03:55:09;100867.91;;;12.00;84.61
48424;BME280;34232;42.502;26.014;2022-12-18T03:57:35;100873.19;;;12.00;84.22
48424;BME280;34232;42.502;26.014;2022-12-18T04:00:11;100859.25;;;11.98;83.83
48424;BME280;34232;42.502;26.014;2022-12-18T04:02:39;100878.00;;;12.06;84.38
48424;BME280;34232;42.502;26.014;2022-12-18T04:05:08;100864.53;;;11.98;83.67
48424;BME280;34232;42.502;26.014;2022-12-18T04:07:36;100885.69;;;12.09;83.92
48424;BME280;34232;42.502;26.014;2022-12-18T04:10:03;100892.53;;;12.11;84.24
48424;BME280;34232;42.502;26.014;2022-12-18T04:12:29;100892.31;;;12.14;83.44
48424;BME280;34232;42.502;26.014;2022-12-18T04:14:55;100891.47;;;12.14;83.51
48424;BME280;34232;42.502;26.014;2022-12-18T04:17:23;100882.09;;;12.10;82.33
48424;BME280;34232;42.502;26.014;2022-12-18T04:19:49;100896.50;;;12.17;82.33
48424;BME280;34232;42.502;26.014;2022-12-18T04:22:15;100896.50;;;12.17;81.99
48424;BME280;34232;42.502;26.014;2022-12-18T04:24:40;100906.81;;;12.20;81.63
48424;BME280;34232;42.502;26.014;2022-12-18T04:27:06;100909.09;;;12.13;82.46
48424;BME280;34232;42.502;26.014;2022-12-18T04:29:32;100909.56;;;12.18;82.52
48424;BME280;34232;42.502;26.014;2022-12-18T04:31:57;100910.91;;;12.24;82.53
48424;BME280;34232;42.502;26.014;2022-12-18T04:34:22;100911.88;;;12.23;82.50
48424;BME280;34232;42.502;26.014;2022-12-18T04:36:48;100919.06;;;12.21;82.26
48424;BME280;34232;42.502;26.014;2022-12-18T04:39:14;100924.13;;;12.24;81.27
48424;BME280;34232;42.502;26.014;2022-12-18T04:41:39;100930.00;;;12.16;80.79
48424;BME280;34232;42.502;26.014;2022-12-18T04:44:06;100931.78;;;12.16;79.89
48424;BME280;34232;42.502;26.014;2022-12-18T04:46:31;100944.69;;;12.08;80.13
48424;BME280;34232;42.502;26.014;2022-12-18T04:48:57;100939.19;;;12.11;80.98
48424;BME280;34232;42.502;26.014;2022-12-18T04:51:22;100953.56;;;12.07;80.91
48424;BME280;34232;42.502;26.014;2022-12-18T04:53:48;100946.81;;;12.03;80.89
48424;BME280;34232;42.502;26.014;2022-12-18T04:56:14;100947.34;;;12.08;81.17
48424;BME280;34232;42.502;26.014;2022-12-18T04:58:40;100957.16;;;12.06;81.25
48424;BME280;34232;42.502;26.014;2022-12-18T05:01:07;100952.56;;;11.97;81.30
48424;BME280;34232;42.502;26.014;2022-12-18T05:03:34;100961.22;;;11.99;81.36
48424;BME280;34232;42.502;26.014;2022-12-18T05:05:59;100963.63;;;12.02;81.52
48424;BME280;34232;42.502;26.014;2022-12-18T05:08:25;100966.50;;;11.99;81.10
48424;BME280;34232;42.502;26.014;2022-12-18T05:11:05;100964.81;;;11.98;80.80
48424;BME280;34232;42.502;26.014;2022-12-18T05:13:32;100967.78;;;11.93;81.21
48424;BME280;34232;42.502;26.014;2022-12-18T05:15:58;100958.06;;;11.94;80.86
48424;BME280;34232;42.502;26.014;2022-12-18T05:18:24;100972.50;;;12.01;80.06
48424;BME280;34232;42.502;26.014;2022-12-18T05:20:53;100963.75;;;12.00;80.52
48424;BME280;34232;42.502;26.014;2022-12-18T05:23:20;100966.84;;;11.94;80.46
48424;BME280;34232;42.502;26.014;2022-12-18T05:25:51;100967.16;;;11.89;80.58
48424;BME280;34232;42.502;26.014;2022-12-18T05:28:17;100975.19;;;11.88;80.63
48424;BME280;34232;42.502;26.014;2022-12-18T05:30:42;100976.97;;;11.87;81.40
48424;BME280;34232;42.502;26.014;2022-12-18T05:33:09;100965.94;;;11.82;81.11
48424;BME280;34232;42.502;26.014;2022-12-18T05:35:35;100982.03;;;11.90;81.05
48424;BME280;34232;42.502;26.014;2022-12-18T05:38:00;100977.44;;;11.81;81.46
48424;BME280;34232;42.502;26.014;2022-12-18T05:40:25;100993.59;;;11.77;81.20
48424;BME280;34232;42.502;26.014;2022-12-18T05:42:51;100984.63;;;11.79;80.67
48424;BME280;34232;42.502;26.014;2022-12-18T05:45:16;100984.06;;;11.74;80.67
48424;BME280;34232;42.502;26.014;2022-12-18T05:47:42;100993.28;;;11.81;80.48
48424;BME280;34232;42.502;26.014;2022-12-18T05:50:07;101000.25;;;11.82;80.27
48424;BME280;34232;42.502;26.014;2022-12-18T05:52:33;101005.78;;;11.90;79.61
48424;BME280;34232;42.502;26.014;2022-12-18T05:54:58;101005.78;;;11.90;79.61
48424;BME280;34232;42.502;26.014;2022-12-18T05:57:24;101007.69;;;11.88;80.23
48424;BME280;34232;42.502;26.014;2022-12-18T05:59:49;101011.28;;;11.87;79.76
48424;BME280;34232;42.502;26.014;2022-12-18T06:02:15;101002.34;;;11.77;79.35
48424;BME280;34232;42.502;26.014;2022-12-18T06:04:40;101016.81;;;11.84;79.88
48424;BME280;34232;42.502;26.014;2022-12-18T06:07:05;101020.16;;;11.86;78.34
48424;BME280;34232;42.502;26.014;2022-12-18T06:09:31;101023.97;;;11.82;79.27
48424;BME280;34232;42.502;26.014;2022-12-18T06:11:57;101033.34;;;11.86;79.06
48424;BME280;34232;42.502;26.014;2022-12-18T06:14:22;101035.28;;;11.84;78.89
48424;BME280;34232;42.502;26.014;2022-12-18T06:16:50;101041.25;;;11.86;78.89
48424;BME280;34232;42.502;26.014;2022-12-18T06:19:16;101042.94;;;11.87;77.70
48424;BME280;34232;42.502;26.014;2022-12-18T06:21:42;101041.94;;;11.77;78.53
48424;BME280;34232;42.502;26.014;2022-12-18T06:24:07;101035.13;;;11.73;78.78
48424;BME280;34232;42.502;26.014;2022-12-18T06:26:33;101057.31;;;11.83;78.54
48424;BME280;34232;42.502;26.014;2022-12-18T06:28:58;101060.66;;;11.85;78.72
48424;BME280;34232;42.502;26.014;2022-12-18T06:31:25;101062.81;;;11.80;79.09
48424;BME280;34232;42.502;26.014;2022-12-18T06:33:51;101071.13;;;11.87;78.36
48424;BME280;34232;42.502;26.014;2022-12-18T06:36:17;101076.75;;;11.82;78.98
48424;BME280;34232;42.502;26.014;2022-12-18T06:38:43;101066.69;;;11.75;78.60
48424;BME280;34232;42.502;26.014;2022-12-18T06:41:17;101078.75;;;11.79;78.12
48424;BME280;34232;42.502;26.014;2022-12-18T06:43:43;101085.63;;;11.81;78.07
48424;BME280;34232;42.502;26.014;2022-12-18T06:46:09;101087.50;;;11.79;77.44
48424;BME280;34232;42.502;26.014;2022-12-18T06:48:34;101087.63;;;11.78;77.64
48424;BME280;34232;42.502;26.014;2022-12-18T06:51:00;101091.47;;;11.72;76.98
48424;BME280;34232;42.502;26.014;2022-12-18T06:53:26;101091.47;;;11.72;76.24
48424;BME280;34232;42.502;26.014;2022-12-18T06:55:51;101102.88;;;11.73;76.50
48424;BME280;34232;42.502;26.014;2022-12-18T06:58:17;101102.50;;;11.66;76.37
48424;BME280;34232;42.502;26.014;2022-12-18T07:00:43;101104.38;;;11.64;77.05
48424;BME280;34232;42.502;26.014;2022-12-18T07:03:08;101113.16;;;11.65;77.32
48424;BME280;34232;42.502;26.014;2022-12-18T07:05:34;101120.94;;;11.66;76.55
48424;BME280;34232;42.502;26.014;2022-12-18T07:07:59;101127.59;;;11.59;76.65
48424;BME280;34232;42.502;26.014;2022-12-18T07:10:27;101103.75;;;11.48;76.24
48424;BME280;34232;42.502;26.014;2022-12-18T07:12:53;101123.78;;;11.63;75.79
48424;BME280;34232;42.502;26.014;2022-12-18T07:15:18;101128.00;;;11.53;76.26
48424;BME280;34232;42.502;26.014;2022-12-18T07:17:43;101143.81;;;11.53;74.61
48424;BME280;34232;42.502;26.014;2022-12-18T07:20:09;101137.09;;;11.49;76.00
48424;BME280;34232;42.502;26.014;2022-12-18T07:22:35;101143.22;;;11.49;75.49
48424;BME280;34232;42.502;26.014;2022-12-18T07:25:00;101153.03;;;11.47;74.27
48424;BME280;34232;42.502;26.014;2022-12-18T07:27:25;101154.06;;;11.45;75.26
48424;BME280;34232;42.502;26.014;2022-12-18T07:29:51;101159.34;;;11.45;74.25
48424;BME280;34232;42.502;26.014;2022-12-18T07:32:16;101169.16;;;11.43;74.28
48424;BME280;34232;42.502;26.014;2022-12-18T07:34:42;101176.00;;;11.45;74.47
48424;BME280;34232;42.502;26.014;2022-12-18T07:37:07;101182.88;;;11.48;74.21
48424;BME280;34232;42.502;26.014;2022-12-18T07:39:32;101186.44;;;11.47;73.66
48424;BME280;34232;42.502;26.014;2022-12-18T07:41:58;101197.41;;;11.41;73.39
48424;BME280;34232;42.502;26.014;2022-12-18T07:44:42;101200.97;;;11.40;73.25
48424;BME280;34232;42.502;26.014;2022-12-18T07:47:08;101210.47;;;11.42;72.48
48424;BME280;34232;42.502;26.014;2022-12-18T07:49:33;101198.78;;;11.34;73.68
48424;BME280;34232;42.502;26.014;2022-12-18T07:51:59;101216.81;;;11.40;72.80
48424;BME280;34232;42.502;26.014;2022-12-18T07:54:25;101219.78;;;11.35;74.13
48424;BME280;34232;42.502;26.014;2022-12-18T07:56:51;101225.25;;;11.32;73.24
48424;BME280;34232;42.502;26.014;2022-12-18T07:59:17;101238.31;;;11.34;72.08
48424;BME280;34232;42.502;26.014;2022-12-18T08:01:43;101226.09;;;11.33;71.66
48424;BME280;34232;42.502;26.014;2022-12-18T08:04:08;101243.81;;;11.43;72.37
48424;BME280;34232;42.502;26.014;2022-12-18T08:06:34;101253.50;;;11.43;72.31
48424;BME280;34232;42.502;26.014;2022-12-18T08:08:59;101239.38;;;11.44;72.57
48424;BME280;34232;42.502;26.014;2022-12-18T08:11:26;101259.03;;;11.52;73.03
48424;BME280;34232;42.502;26.014;2022-12-18T08:13:52;101247.41;;;11.55;71.75
48424;BME280;34232;42.502;26.014;2022-12-18T08:16:19;101250.06;;;11.55;72.66
48424;BME280;34232;42.502;26.014;2022-12-18T08:18:44;101266.97;;;11.65;71.77
48424;BME280;34232;42.502;26.014;2022-12-18T08:23:38;101275.75;;;11.78;71.18
48424;BME280;34232;42.502;26.014;2022-12-18T08:26:05;101281.03;;;11.78;69.52
48424;BME280;34232;42.502;26.014;2022-12-18T08:28:31;101283.56;;;11.80;68.98
48424;BME280;34232;42.502;26.014;2022-12-18T08:30:56;101288.97;;;11.78;66.93
48424;BME280;34232;42.502;26.014;2022-12-18T08:33:22;101290.28;;;11.71;67.15
48424;BME280;34232;42.502;26.014;2022-12-18T08:35:47;101292.63;;;11.76;67.57
48424;BME280;34232;42.502;26.014;2022-12-18T08:38:12;101294.34;;;11.77;68.53
48424;BME280;34232;42.502;26.014;2022-12-18T08:40:40;101300.91;;;11.84;70.06
48424;BME280;34232;42.502;26.014;2022-12-18T08:43:09;101292.25;;;11.82;69.94
48424;BME280;34232;42.502;26.014;2022-12-18T08:45:53;101307.22;;;11.94;70.75
48424;BME280;34232;42.502;26.014;2022-12-18T08:48:19;101311.00;;;11.90;74.56
48424;BME280;34232;42.502;26.014;2022-12-18T08:50:53;101294.09;;;11.67;76.53
48424;BME280;34232;42.502;26.014;2022-12-18T08:53:19;101303.25;;;11.62;79.01
48424;BME280;34232;42.502;26.014;2022-12-18T08:55:44;101300.25;;;11.53;80.34
48424;BME280;34232;42.502;26.014;2022-12-18T08:58:09;101298.03;;;11.47;80.40
48424;BME280;34232;42.502;26.014;2022-12-18T09:00:35;101289.34;;;11.33;81.41
48424;BME280;34232;42.502;26.014;2022-12-18T09:03:00;101296.09;;;11.37;82.31
48424;BME280;34232;42.502;26.014;2022-12-18T09:05:27;101291.91;;;11.34;84.29
48424;BME280;34232;42.502;26.014;2022-12-18T09:07:52;101283.03;;;11.35;84.70
48424;BME280;34232;42.502;26.014;2022-12-18T09:10:17;101288.94;;;11.39;85.19
48424;BME280;34232;42.502;26.014;2022-12-18T09:12:43;101285.91;;;11.45;85.53
48424;BME280;34232;42.502;26.014;2022-12-18T09:15:08;101284.34;;;11.55;86.69
48424;BME280;34232;42.502;26.014;2022-12-18T09:17:34;101284.59;;;11.65;86.84
48424;BME280;34232;42.502;26.014;2022-12-18T09:19:59;101279.81;;;11.70;87.74
48424;BME280;34232;42.502;26.014;2022-12-18T09:22:25;101275.94;;;11.75;88.06
48424;BME280;34232;42.502;26.014;2022-12-18T09:24:50;101281.03;;;11.78;88.87
48424;BME280;34232;42.502;26.014;2022-12-18T09:27:15;101282.72;;;11.79;88.61
48424;BME280;34232;42.502;26.014;2022-12-18T09:29:41;101289.72;;;11.93;88.84
48424;BME280;34232;42.502;26.014;2022-12-18T09:32:06;101293.84;;;11.97;88.56
48424;BME280;34232;42.502;26.014;2022-12-18T09:34:32;101291.94;;;11.99;88.85
48424;BME280;34232;42.502;26.014;2022-12-18T09:36:57;101296.13;;;12.02;89.86
48424;BME280;34232;42.502;26.014;2022-12-18T09:39:23;101296.13;;;12.02;88.95
48424;BME280;34232;42.502;26.014;2022-12-18T09:41:57;101306.94;;;11.99;88.44
48424;BME280;34232;42.502;26.014;2022-12-18T09:44:29;101316.00;;;11.95;88.32
48424;BME280;34232;42.502;26.014;2022-12-18T09:47:29;101312.22;;;11.99;89.18
48424;BME280;34232;42.502;26.014;2022-12-18T09:50:23;101300.91;;;11.97;89.26
48424;BME280;34232;42.502;26.014;2022-12-18T09:52:49;101302.69;;;11.96;90.02
48424;BME280;34232;42.502;26.014;2022-12-18T09:55:39;101297.13;;;12.01;89.72
48424;BME280;34232;42.502;26.014;2022-12-18T10:01:17;101305.09;;;11.86;86.98
48424;BME280;34232;42.502;26.014;2022-12-18T10:03:43;101296.22;;;11.87;86.02
48424;BME280;34232;42.502;26.014;2022-12-18T10:06:14;101304.69;;;11.93;86.70
48424;BME280;34232;42.502;26.014;2022-12-18T10:14:27;101305.22;;;11.98;89.23
48424;BME280;34232;42.502;26.014;2022-12-18T10:25:10;101291.91;;;11.86;85.94
48424;BME280;34232;42.502;26.014;2022-12-18T10:27:40;101301.94;;;11.81;87.82
48424;BME280;34232;42.502;26.014;2022-12-18T10:30:17;101295.34;;;11.74;88.28
48424;BME280;34232;42.502;26.014;2022-12-18T10:32:42;101306.28;;;11.82;88.18
48424;BME280;34232;42.502;26.014;2022-12-18T10:35:17;101312.91;;;11.88;88.74
48424;BME280;34232;42.502;26.014;2022-12-18T10:38:04;101311.88;;;11.90;88.85
48424;BME280;34232;42.502;26.014;2022-12-18T10:40:31;101314.50;;;11.78;82.58
48424;BME280;34232;42.502;26.014;2022-12-18T10:43:12;101321.56;;;11.77;83.80
48424;BME280;34232;42.502;26.014;2022-12-18T10:45:38;101317.22;;;11.76;85.88
48424;BME280;34232;42.502;26.014;2022-12-18T10:48:04;101324.94;;;11.79;86.16
48424;BME280;34232;42.502;26.014;2022-12-18T10:50:46;101314.50;;;11.78;84.72
48424;BME280;34232;42.502;26.014;2022-12-18T10:53:19;101311.84;;;11.78;84.14
48424;BME280;34232;42.502;26.014;2022-12-18T10:55:45;101316.94;;;11.81;84.63
48424;BME280;34232;42.502;26.014;2022-12-18T11:03:34;101322.66;;;11.73;83.80
48424;BME280;34232;42.502;26.014;2022-12-18T11:06:06;101332.13;;;11.77;84.42
48424;BME280;34232;42.502;26.014;2022-12-18T11:08:33;101340.97;;;11.76;83.11
48424;BME280;34232;42.502;26.014;2022-12-18T11:10:58;101335.50;;;11.79;81.51
48424;BME280;34232;42.502;26.014;2022-12-18T11:13:26;101322.41;;;11.78;81.87
48424;BME280;34232;42.502;26.014;2022-12-18T11:15:52;101321.47;;;11.79;76.62
48424;BME280;34232;42.502;26.014;2022-12-18T11:18:32;101331.72;;;11.83;78.83
48424;BME280;34232;42.502;26.014;2022-12-18T11:21:12;101328.13;;;11.84;78.91
48424;BME280;34232;42.502;26.014;2022-12-18T11:23:54;101331.91;;;11.80;80.00
48424;BME280;34232;42.502;26.014;2022-12-18T11:26:20;101333.66;;;11.67;83.82
48424;BME280;34232;42.502;26.014;2022-12-18T11:28:50;101331.91;;;11.53;86.23
48424;BME280;34232;42.502;26.014;2022-12-18T11:34:15;101345.03;;;11.41;90.86
48424;BME280;34232;42.502;26.014;2022-12-18T11:36:45;101352.72;;;11.31;91.66
48424;BME280;34232;42.502;26.014;2022-12-18T11:39:33;101351.69;;;11.34;91.83
48424;BME280;34232;42.502;26.014;2022-12-18T11:42:09;101344.91;;;11.30;92.33
48424;BME280;34232;42.502;26.014;2022-12-18T11:50:16;101359.81;;;11.16;93.56
48424;BME280;34232;42.502;26.014;2022-12-18T11:52:42;101354.25;;;11.21;94.35
48424;BME280;34232;42.502;26.014;2022-12-18T11:55:23;101360.16;;;11.25;94.77
48424;BME280;34232;42.502;26.014;2022-12-18T12:00:19;101363.25;;;11.31;94.91
48424;BME280;34232;42.502;26.014;2022-12-18T12:08:20;101360.44;;;11.34;94.21
48424;BME280;34232;42.502;26.014;2022-12-18T12:16:52;101359.97;;;11.28;96.23
48424;BME280;34232;42.502;26.014;2022-12-18T12:19:43;101356.59;;;11.26;96.17
48424;BME280;34232;42.502;26.014;2022-12-18T12:24:48;101362.63;;;11.28;95.49
48424;BME280;34232;42.502;26.014;2022-12-18T12:30:03;101362.50;;;11.29;94.11
48424;BME280;34232;42.502;26.014;2022-12-18T12:35:43;101364.25;;;11.43;95.04
48424;BME280;34232;42.502;26.014;2022-12-18T12:38:21;101376.31;;;11.47;95.01
48424;BME280;34232;42.502;26.014;2022-12-18T12:40:53;101379.69;;;11.49;95.14
48424;BME280;34232;42.502;26.014;2022-12-18T12:43:25;101382.84;;;11.54;94.89
48424;BME280;34232;42.502;26.014;2022-12-18T12:45:56;101391.50;;;11.56;93.67
48424;BME280;34232;42.502;26.014;2022-12-18T12:48:35;101381.16;;;11.53;92.79
48424;BME280;34232;42.502;26.014;2022-12-18T12:51:07;101400.19;;;11.58;92.33
48424;BME280;34232;42.502;26.014;2022-12-18T12:53:35;101418.72;;;11.56;92.04
48424;BME280;34232;42.502;26.014;2022-12-18T12:56:03;101410.88;;;11.42;92.04
48424;BME280;34232;42.502;26.014;2022-12-18T13:04:34;101422.25;;;11.43;93.55
48424;BME280;34232;42.502;26.014;2022-12-18T13:07:24;101412.75;;;11.40;93.45
48424;BME280;34232;42.502;26.014;2022-12-18T13:15:44;101426.47;;;11.18;92.66
48424;BME280;34232;42.502;26.014;2022-12-18T13:25:51;101454.50;;;11.05;89.74
48424;BME280;34232;42.502;26.014;2022-12-18T13:30:52;101464.88;;;11.08;86.86
48424;BME280;34232;42.502;26.014;2022-12-18T13:38:43;101479.75;;;10.95;83.96
48424;BME280;34232;42.502;26.014;2022-12-18T13:43:45;101478.47;;;10.72;82.07
48424;BME280;34232;42.502;26.014;2022-12-18T13:46:30;101481.50;;;10.66;84.38
48424;BME280;34232;42.502;26.014;2022-12-18T13:51:42;101478.63;;;10.41;91.14
48424;BME280;34232;42.502;26.014;2022-12-18T13:56:44;101489.88;;;10.13;97.37
48424;BME280;34232;42.502;26.014;2022-12-18T14:01:57;101493.06;;;9.72;99.34
48424;BME280;34232;42.502;26.014;2022-12-18T14:04:31;101501.81;;;9.57;99.41
48424;BME280;34232;42.502;26.014;2022-12-18T14:07:06;101503.44;;;9.27;99.63
48424;BME280;34232;42.502;26.014;2022-12-18T14:09:39;101501.22;;;9.03;100.00
48424;BME280;34232;42.502;26.014;2022-12-18T14:12:06;101505.94;;;8.97;100.00
48424;BME280;34232;42.502;26.014;2022-12-18T14:14:51;101515.00;;;8.74;100.00
48424;BME280;34232;42.502;26.014;2022-12-18T14:17:18;101504.66;;;8.71;100.00
48424;BME280;34232;42.502;26.014;2022-12-18T14:19:48;101515.09;;;8.55;100.00
48424;BME280;34232;42.502;26.014;2022-12-18T14:22:17;101513.16;;;8.41;100.00
48424;BME280;34232;42.502;26.014;2022-12-18T14:24:44;101527.75;;;8.28;100.00
48424;BME280;34232;42.502;26.014;2022-12-18T14:27:27;101525.16;;;8.11;100.00
48424;BME280;34232;42.502;26.014;2022-12-18T14:29:52;101544.56;;;8.07;100.00
48424;BME280;34232;42.502;26.014;2022-12-18T14:32:19;101542.44;;;7.96;100.00
48424;BME280;34232;42.502;26.014;2022-12-18T14:37:16;101554.22;;;7.88;100.00
48424;BME280;34232;42.502;26.014;2022-12-18T14:39:55;101561.44;;;7.83;100.00
48424;BME280;34232;42.502;26.014;2022-12-18T14:42:22;101559.81;;;7.80;100.00
48424;BME280;34232;42.502;26.014;2022-12-18T14:44:47;101566.47;;;7.68;100.00
48424;BME280;34232;42.502;26.014;2022-12-18T14:47:16;101560.59;;;7.63;100.00
48424;BME280;34232;42.502;26.014;2022-12-18T14:49:42;101559.06;;;7.59;100.00
48424;BME280;34232;42.502;26.014;2022-12-18T14:52:23;101569.66;;;7.56;100.00
48424;BME280;34232;42.502;26.014;2022-12-18T14:54:51;101573.47;;;7.49;100.00
48424;BME280;34232;42.502;26.014;2022-12-18T14:57:23;101573.13;;;7.38;100.00